Time;durP1;ratioP1;P1;durP2;ratioP2;P2;SDS_P1;SDS_P2;PMS_P1;PMS_P2;Temp;Humidity;BMP_temperature;BMP_pressure;BME280_temperature;BME280_humidity;BME280_pressure;Samples;Min_cycle;Max_cycle;Signal;HPM_P1;HPM_P2
2023/08/09 00:01:48;;;;;;;1.83;1.70;;;;;;;;;;5037568;28;20260;-68
2023/08/09 00:04:14;;;;;;;2.60;2.40;;;;;;;;;;5055296;28;20524;-68
2023/08/09 00:06:40;;;;;;;3.87;3.57;;;;;;;;;;5055280;28;20198;-68
2023/08/09 00:09:06;;;;;;;5.90;5.40;;;;;;;;;;5055327;28;20219;-68
2023/08/09 00:11:32;;;;;;;5.90;5.17;;;;;;;;;;5037377;28;20708;-68
2023/08/09 00:13:58;;;;;;;6.13;5.23;;;;;;;;;;5037337;28;20183;-68
2023/08/09 00:16:24;;;;;;;4.60;4.20;;;;;;;;;;5037181;28;20221;-68
2023/08/09 00:18:50;;;;;;;4.87;3.93;;;;;;;;;;5055156;28;20551;-68
2023/08/09 00:21:16;;;;;;;4.13;3.70;;;;;;;;;;5037311;28;20645;-68
2023/08/09 00:23:42;;;;;;;6.63;4.90;;;;;;;;;;5037022;28;20187;-69
2023/08/09 00:26:08;;;;;;;9.63;5.30;;;;;;;;;;5054752;28;20175;-69
2023/08/09 00:28:34;;;;;;;11.47;5.70;;;;;;;;;;5054806;28;20204;-69
2023/08/09 00:31:00;;;;;;;18.87;7.20;;;;;;;;;;5037463;28;20178;-69
2023/08/09 00:33:26;;;;;;;14.33;6.47;;;;;;;;;;5037415;28;20189;-69
2023/08/09 00:35:52;;;;;;;17.30;7.43;;;;;;;;;;5055366;28;20197;-68
2023/08/09 00:38:18;;;;;;;11.67;6.63;;;;;;;;;;5054591;28;20688;-68
2023/08/09 00:40:44;;;;;;;11.00;5.73;;;;;;;;;;5036985;28;20209;-68
2023/08/09 00:43:10;;;;;;;7.60;4.60;;;;;;;;;;5050635;22;20189;-67
2023/08/09 00:45:36;;;;;;;5.53;3.37;;;;;;;;;;5035629;28;20164;-66
2023/08/09 00:48:03;;;;;;;4.80;2.30;;;;;;;;;;5016582;28;20180;-66
2023/08/09 00:50:29;;;;;;;4.50;2.10;;;;;;;;;;5034736;28;20178;-66
2023/08/09 00:52:55;;;;;;;2.67;2.10;;;;;;;;;;5016917;28;20653;-66
2023/08/09 00:55:21;;;;;;;3.97;2.23;;;;;;;;;;5016971;28;20179;-66
2023/08/09 00:57:48;;;;;;;4.13;2.00;;;;;;;;;;5034841;28;20182;-66
2023/08/09 01:00:14;;;;;;;2.10;1.90;;;;;;;;;;5017072;28;20179;-66
2023/08/09 01:02:40;;;;;;;1.87;1.77;;;;;;;;;;5016674;28;20555;-66
2023/08/09 01:05:07;;;;;;;2.07;1.70;;;;;;;;;;5016792;28;20297;-66
2023/08/09 01:07:36;;;;;;;1.83;1.73;;;;;;;;;;5016684;28;20187;-66
2023/08/09 01:10:20;;;;;;;2.10;1.50;;;;;;;;;;5034666;28;20187;-67
2023/08/09 01:12:54;;;;;;;2.20;1.77;;;;;;;;;;5016522;28;20209;-66
2023/08/09 01:15:21;;;;;;;4.63;1.60;;;;;;;;;;5016603;28;20625;-66
2023/08/09 01:17:48;;;;;;;1.70;1.60;;;;;;;;;;5016630;28;20265;-67
2023/08/09 01:20:16;;;;;;;2.53;1.80;;;;;;;;;;5034291;28;20178;-65
2023/08/09 01:22:50;;;;;;;4.87;3.33;;;;;;;;;;5034036;28;20179;-66
2023/08/09 01:25:16;;;;;;;5.60;4.83;;;;;;;;;;5034239;28;20630;-66
2023/08/09 01:27:42;;;;;;;7.30;5.37;;;;;;;;;;5034602;28;20695;-66
2023/08/09 01:30:09;;;;;;;6.73;5.50;;;;;;;;;;5016223;28;20187;-66
2023/08/09 01:32:35;;;;;;;6.20;5.47;;;;;;;;;;5016165;28;20207;-66
2023/08/09 01:35:02;;;;;;;5.20;4.70;;;;;;;;;;5016285;28;20335;-66
2023/08/09 01:37:31;;;;;;;4.73;4.33;;;;;;;;;;5034025;28;20210;-66
2023/08/09 01:39:58;;;;;;;5.07;4.33;;;;;;;;;;5033808;28;20168;-67
2023/08/09 01:42:24;;;;;;;4.23;3.70;;;;;;;;;;5033837;28;20262;-66
2023/08/09 01:44:50;;;;;;;4.23;3.80;;;;;;;;;;5033712;28;20257;-66
2023/08/09 01:47:17;;;;;;;3.33;3.03;;;;;;;;;;5016277;28;20207;-66
2023/08/09 01:49:47;;;;;;;4.23;3.37;;;;;;;;;;5016081;28;20183;-66
2023/08/09 01:52:13;;;;;;;4.33;3.47;;;;;;;;;;5016013;28;20210;-66
2023/08/09 01:54:39;;;;;;;5.63;3.63;;;;;;;;;;5033647;28;20195;-66
2023/08/09 01:57:05;;;;;;;3.90;3.30;;;;;;;;;;5033535;28;20179;-66
2023/08/09 01:59:31;;;;;;;2.80;2.50;;;;;;;;;;5014914;28;20648;-66
2023/08/09 02:01:57;;;;;;;2.50;2.30;;;;;;;;;;5015630;28;20190;-66
2023/08/09 02:04:24;;;;;;;2.23;1.93;;;;;;;;;;5033379;28;20203;-66
2023/08/09 02:06:50;;;;;;;2.83;2.30;;;;;;;;;;5015755;28;20237;-66
2023/08/09 02:09:16;;;;;;;2.40;2.20;;;;;;;;;;5033413;28;20183;-66
2023/08/09 02:11:42;;;;;;;2.57;2.37;;;;;;;;;;5016263;28;20586;-66
2023/08/09 02:14:08;;;;;;;2.20;2.00;;;;;;;;;;5033802;28;20222;-66
2023/08/09 02:16:34;;;;;;;2.83;2.63;;;;;;;;;;5034408;28;20179;-66
2023/08/09 02:19:00;;;;;;;2.77;2.43;;;;;;;;;;5037256;28;20652;-66
2023/08/09 02:21:26;;;;;;;4.20;2.40;;;;;;;;;;5020051;28;20211;-66
2023/08/09 02:23:52;;;;;;;2.80;2.60;;;;;;;;;;5036474;28;20206;-66
2023/08/09 02:26:18;;;;;;;2.67;2.47;;;;;;;;;;5037139;28;20189;-66
2023/08/09 02:28:45;;;;;;;3.40;2.80;;;;;;;;;;5021411;28;20194;-66
2023/08/09 02:31:11;;;;;;;2.60;2.40;;;;;;;;;;5040304;28;20199;-66
2023/08/09 02:33:37;;;;;;;5.27;3.00;;;;;;;;;;5022003;28;20736;-66
2023/08/09 02:36:03;;;;;;;3.00;2.80;;;;;;;;;;5039810;28;20202;-66
2023/08/09 02:38:29;;;;;;;3.37;2.90;;;;;;;;;;5036544;28;20175;-66
2023/08/09 02:40:56;;;;;;;6.93;3.17;;;;;;;;;;5036131;28;20178;-66
2023/08/09 02:43:24;;;;;;;3.70;3.40;;;;;;;;;;5036411;28;20203;-66
2023/08/09 02:45:50;;;;;;;3.90;3.40;;;;;;;;;;5035748;28;20167;-66
2023/08/09 02:48:16;;;;;;;4.30;3.90;;;;;;;;;;5017276;28;20179;-66
2023/08/09 02:50:43;;;;;;;5.40;4.90;;;;;;;;;;5034604;28;20179;-66
2023/08/09 02:53:09;;;;;;;5.67;5.10;;;;;;;;;;5034804;28;20211;-66
2023/08/09 02:55:35;;;;;;;5.83;5.23;;;;;;;;;;5034386;28;20656;-66
2023/08/09 02:58:03;;;;;;;5.83;4.83;;;;;;;;;;5015504;28;20183;-66
2023/08/09 03:00:30;;;;;;;5.90;5.20;;;;;;;;;;5032850;28;20193;-66
2023/08/09 03:02:56;;;;;;;7.10;5.40;;;;;;;;;;5033387;28;20262;-66
2023/08/09 03:05:22;;;;;;;6.50;5.50;;;;;;;;;;5033250;28;20214;-66
2023/08/09 03:07:48;;;;;;;6.33;5.73;;;;;;;;;;5015844;28;20249;-66
2023/08/09 03:10:14;;;;;;;6.20;5.60;;;;;;;;;;5038955;28;20175;-66
2023/08/09 03:12:40;;;;;;;5.97;5.37;;;;;;;;;;5041448;28;20198;-66
2023/08/09 03:15:06;;;;;;;7.03;5.90;;;;;;;;;;5040151;28;20217;-66
2023/08/09 03:17:32;;;;;;;7.23;6.37;;;;;;;;;;5039614;28;20186;-66
2023/08/09 03:19:58;;;;;;;6.87;6.17;;;;;;;;;;5019627;28;20674;-67
2023/08/09 03:22:24;;;;;;;7.93;6.90;;;;;;;;;;5037070;28;20187;-66
2023/08/09 03:24:50;;;;;;;8.13;6.53;;;;;;;;;;5018958;28;20210;-66
2023/08/09 03:27:16;;;;;;;8.53;7.20;;;;;;;;;;5019067;28;20194;-66
2023/08/09 03:29:43;;;;;;;7.47;6.77;;;;;;;;;;5036614;28;20183;-66
2023/08/09 03:32:08;;;;;;;8.73;7.83;;;;;;;;;;5036791;28;20299;-66
2023/08/09 03:34:34;;;;;;;12.53;10.53;;;;;;;;;;5036499;28;20233;-67
2023/08/09 03:37:00;;;;;;;12.13;10.60;;;;;;;;;;5036268;28;20176;-64
2023/08/09 03:39:27;;;;;;;11.10;10.00;;;;;;;;;;5018757;28;20202;-64
2023/08/09 03:41:53;;;;;;;11.23;9.93;;;;;;;;;;5036103;28;20381;-66
2023/08/09 03:44:19;;;;;;;12.60;11.30;;;;;;;;;;5018145;28;20302;-66
2023/08/09 03:46:45;;;;;;;14.50;12.67;;;;;;;;;;5036179;28;20621;-66
2023/08/09 03:49:11;;;;;;;16.27;14.17;;;;;;;;;;5036155;28;20183;-66
2023/08/09 03:51:37;;;;;;;14.70;13.40;;;;;;;;;;5036320;28;20206;-66
2023/08/09 03:54:03;;;;;;;13.70;12.30;;;;;;;;;;5018477;28;20195;-66
2023/08/09 03:56:29;;;;;;;13.43;11.60;;;;;;;;;;5036339;28;20179;-66
2023/08/09 03:58:55;;;;;;;14.30;12.80;;;;;;;;;;5036389;28;20183;-66
2023/08/09 04:01:21;;;;;;;13.30;11.90;;;;;;;;;;5036006;28;20266;-65
2023/08/09 04:03:47;;;;;;;13.13;11.90;;;;;;;;;;5018466;28;20199;-66
2023/08/09 04:06:14;;;;;;;14.43;12.53;;;;;;;;;;5035615;28;20595;-66
2023/08/09 04:08:40;;;;;;;14.47;12.07;;;;;;;;;;5017827;28;20726;-66
2023/08/09 04:11:07;;;;;;;13.17;11.27;;;;;;;;;;5035643;28;20179;-66
2023/08/09 04:13:32;;;;;;;11.03;10.00;;;;;;;;;;5017703;28;20195;-67
2023/08/09 04:15:59;;;;;;;11.23;10.00;;;;;;;;;;5017680;28;20273;-66
2023/08/09 04:18:25;;;;;;;11.67;10.57;;;;;;;;;;5035506;28;20572;-66
2023/08/09 04:20:51;;;;;;;11.27;10.23;;;;;;;;;;5034676;28;20641;-63
2023/08/09 04:23:18;;;;;;;11.23;10.17;;;;;;;;;;5017373;28;20195;-64
2023/08/09 04:25:44;;;;;;;11.93;10.40;;;;;;;;;;5036051;28;20179;-66
2023/08/09 04:28:11;;;;;;;15.77;11.73;;;;;;;;;;5035708;28;20209;-63
2023/08/09 04:30:36;;;;;;;13.93;12.53;;;;;;;;;;5017781;28;20186;-63
2023/08/09 04:33:06;;;;;;;26.07;23.27;;;;;;;;;;5035625;28;20207;-66
2023/08/09 04:35:33;;;;;;;24.13;21.73;;;;;;;;;;5017423;28;20637;-63
2023/08/09 04:37:59;;;;;;;20.93;18.73;;;;;;;;;;5017454;28;20270;-64
2023/08/09 04:40:25;;;;;;;26.97;23.43;;;;;;;;;;5017415;28;20176;-62
2023/08/09 04:42:51;;;;;;;19.53;17.63;;;;;;;;;;5017380;28;20282;-65
2023/08/09 04:45:17;;;;;;;13.77;12.57;;;;;;;;;;5017615;28;20222;-64
2023/08/09 04:47:44;;;;;;;15.20;13.67;;;;;;;;;;5017610;28;20218;-66
2023/08/09 04:50:10;;;;;;;15.27;13.77;;;;;;;;;;5035153;28;20206;-65
2023/08/09 04:52:38;;;;;;;15.30;13.40;;;;;;;;;;5017303;28;20298;-65
2023/08/09 04:55:05;;;;;;;15.70;13.20;;;;;;;;;;5034811;28;20191;-65
2023/08/09 04:57:31;;;;;;;14.73;12.03;;;;;;;;;;5035090;28;20178;-65
2023/08/09 04:59:57;;;;;;;12.00;10.80;;;;;;;;;;5034945;28;20175;-66
2023/08/09 05:02:23;;;;;;;11.87;10.70;;;;;;;;;;5034926;28;20664;-65
2023/08/09 05:04:49;;;;;;;12.33;11.10;;;;;;;;;;5016838;28;20238;-66
2023/08/09 05:07:16;;;;;;;12.33;11.13;;;;;;;;;;5034719;28;20278;-65
2023/08/09 05:09:42;;;;;;;13.00;11.50;;;;;;;;;;5034826;28;20221;-65
2023/08/09 05:12:08;;;;;;;13.27;11.37;;;;;;;;;;5034601;28;20202;-65
2023/08/09 05:14:34;;;;;;;12.37;11.17;;;;;;;;;;5016715;28;20257;-66
2023/08/09 05:17:00;;;;;;;19.60;16.37;;;;;;;;;;5016709;28;20228;-65
2023/08/09 05:19:26;;;;;;;17.53;15.60;;;;;;;;;;5016928;28;20179;-66
2023/08/09 05:21:56;;;;;;;19.00;16.20;;;;;;;;;;5036268;28;20183;-65
2023/08/09 05:24:22;;;;;;;21.53;18.20;;;;;;;;;;5035968;28;20195;-65
2023/08/09 05:26:48;;;;;;;29.87;24.80;;;;;;;;;;5016787;28;20183;-65
2023/08/09 05:29:14;;;;;;;33.00;24.70;;;;;;;;;;5034318;28;20179;-65
2023/08/09 05:31:40;;;;;;;33.83;24.67;;;;;;;;;;5016855;28;20199;-65
2023/08/09 05:34:06;;;;;;;34.63;26.27;;;;;;;;;;5034191;28;20195;-65
2023/08/09 05:36:32;;;;;;;38.40;27.80;;;;;;;;;;5016664;28;20668;-65
2023/08/09 05:38:58;;;;;;;38.97;25.90;;;;;;;;;;5016528;28;20281;-65
2023/08/09 05:41:24;;;;;;;33.47;25.43;;;;;;;;;;5034217;28;20233;-65
2023/08/09 05:43:49;;;;;;;35.63;26.07;;;;;;;;;;5034547;28;20647;-66
2023/08/09 05:46:15;;;;;;;40.33;27.13;;;;;;;;;;5018803;28;20672;-66
2023/08/09 05:48:41;;;;;;;35.90;26.57;;;;;;;;;;5023638;28;20201;-65
2023/08/09 05:51:07;;;;;;;34.70;25.00;;;;;;;;;;5041578;28;20186;-65
2023/08/09 05:53:33;;;;;;;26.60;21.80;;;;;;;;;;5044550;28;20191;-64
2023/08/09 05:55:59;;;;;;;21.73;17.80;;;;;;;;;;5019456;28;20329;-66
2023/08/09 05:58:25;;;;;;;18.97;16.93;;;;;;;;;;5035249;28;20182;-65
2023/08/09 06:00:51;;;;;;;19.67;16.77;;;;;;;;;;5034636;28;20170;-65
2023/08/09 06:03:17;;;;;;;18.77;16.77;;;;;;;;;;5034444;28;20700;-65
2023/08/09 06:05:44;;;;;;;20.23;17.67;;;;;;;;;;5034431;28;20183;-65
2023/08/09 06:08:10;;;;;;;19.07;17.17;;;;;;;;;;5034228;28;20179;-65
2023/08/09 06:10:36;;;;;;;20.10;16.43;;;;;;;;;;5034622;28;20197;-65
2023/08/09 06:13:02;;;;;;;19.30;17.17;;;;;;;;;;5016646;28;20630;-65
2023/08/09 06:15:28;;;;;;;20.00;16.43;;;;;;;;;;5033671;28;20174;-65
2023/08/09 06:17:54;;;;;;;17.23;15.63;;;;;;;;;;5016314;28;20171;-65
2023/08/09 06:20:21;;;;;;;20.97;16.53;;;;;;;;;;5033769;28;20175;-65
2023/08/09 06:22:47;;;;;;;16.97;15.37;;;;;;;;;;5015771;28;20179;-65
2023/08/09 06:25:14;;;;;;;17.40;15.63;;;;;;;;;;5035316;28;20195;-66
2023/08/09 06:27:40;;;;;;;16.97;15.33;;;;;;;;;;5033518;28;20190;-65
2023/08/09 06:30:06;;;;;;;16.37;14.87;;;;;;;;;;5033129;28;20645;-65
2023/08/09 06:32:32;;;;;;;15.27;13.70;;;;;;;;;;5015363;28;20248;-66
2023/08/09 06:34:58;;;;;;;14.63;13.20;;;;;;;;;;5033110;28;20624;-65
2023/08/09 06:37:24;;;;;;;15.23;13.73;;;;;;;;;;5015318;28;20717;-65
2023/08/09 06:39:50;;;;;;;14.60;13.00;;;;;;;;;;5015419;28;20179;-66
2023/08/09 06:42:16;;;;;;;14.33;13.00;;;;;;;;;;5032994;28;20179;-65
2023/08/09 06:44:43;;;;;;;13.50;12.13;;;;;;;;;;5043068;23;20226;-70
2023/08/09 06:47:10;;;;;;;13.27;12.00;;;;;;;;;;5057881;28;20199;-70
2023/08/09 06:49:36;;;;;;;13.23;11.77;;;;;;;;;;5039468;28;20202;-70
2023/08/09 06:52:02;;;;;;;17.67;11.33;;;;;;;;;;5038969;28;20253;-70
2023/08/09 06:54:28;;;;;;;14.10;12.17;;;;;;;;;;5038737;28;20183;-70
2023/08/09 06:56:54;;;;;;;13.87;12.00;;;;;;;;;;5056934;28;20624;-70
2023/08/09 06:59:20;;;;;;;13.07;11.90;;;;;;;;;;5056772;28;20309;-70
2023/08/09 07:01:48;;;;;;;13.43;12.17;;;;;;;;;;5056758;28;20560;-70
2023/08/09 07:04:15;;;;;;;13.70;12.03;;;;;;;;;;5056810;28;20182;-70
2023/08/09 07:06:41;;;;;;;14.27;12.03;;;;;;;;;;5056397;28;20197;-70
2023/08/09 07:09:07;;;;;;;12.93;11.67;;;;;;;;;;5056260;28;20727;-70
2023/08/09 07:11:33;;;;;;;13.53;12.13;;;;;;;;;;5056584;28;20212;-70
2023/08/09 07:14:02;;;;;;;16.57;11.63;;;;;;;;;;5056458;28;20682;-70
2023/08/09 07:16:28;;;;;;;12.67;11.27;;;;;;;;;;5038444;28;20286;-70
2023/08/09 07:18:54;;;;;;;12.10;11.00;;;;;;;;;;5038351;28;20210;-70
2023/08/09 07:21:20;;;;;;;11.87;10.87;;;;;;;;;;5038376;28;20182;-70
2023/08/09 07:23:46;;;;;;;13.50;10.97;;;;;;;;;;5038249;28;20228;-70
2023/08/09 07:26:12;;;;;;;13.07;11.67;;;;;;;;;;5038566;28;20206;-70
2023/08/09 07:28:38;;;;;;;12.60;11.37;;;;;;;;;;5056146;28;20238;-71
2023/08/09 07:31:04;;;;;;;11.77;10.53;;;;;;;;;;5056062;28;20210;-71
2023/08/09 07:33:30;;;;;;;11.47;10.47;;;;;;;;;;5056294;28;20170;-70
2023/08/09 07:35:56;;;;;;;13.90;9.93;;;;;;;;;;5055997;28;20190;-71
2023/08/09 07:38:22;;;;;;;10.93;9.93;;;;;;;;;;5059572;28;20182;-70
2023/08/09 07:40:48;;;;;;;10.03;9.23;;;;;;;;;;5056103;28;20580;-70
2023/08/09 07:43:14;;;;;;;9.93;8.93;;;;;;;;;;5055801;28;20186;-70
2023/08/09 07:45:42;;;;;;;9.63;8.73;;;;;;;;;;5037783;28;20297;-70
2023/08/09 07:48:08;;;;;;;10.63;9.63;;;;;;;;;;5055648;28;20568;-71
2023/08/09 07:50:34;;;;;;;9.93;9.00;;;;;;;;;;5037922;28;20232;-71
2023/08/09 07:53:00;;;;;;;10.60;9.30;;;;;;;;;;5055496;28;20202;-71
2023/08/09 07:55:26;;;;;;;9.63;8.70;;;;;;;;;;5055062;28;20198;-71
2023/08/09 07:57:52;;;;;;;11.70;8.37;;;;;;;;;;5054660;28;20175;-70
2023/08/09 08:00:18;;;;;;;13.90;8.63;;;;;;;;;;5055396;28;20193;-71
2023/08/09 08:02:46;;;;;;;9.10;8.30;;;;;;;;;;5055499;28;20273;-71
2023/08/09 08:05:12;;;;;;;9.10;8.00;;;;;;;;;;5039700;28;20205;-71
2023/08/09 08:07:39;;;;;;;8.53;7.80;;;;;;;;;;5037607;28;20182;-71
2023/08/09 08:10:08;;;;;;;8.60;7.77;;;;;;;;;;5055486;28;20696;-71
2023/08/09 08:12:34;;;;;;;8.73;6.90;;;;;;;;;;5055072;28;20208;-71
2023/08/09 08:15:00;;;;;;;9.73;7.27;;;;;;;;;;5055285;28;20198;-71
2023/08/09 08:17:26;;;;;;;8.27;6.90;;;;;;;;;;5037424;28;20178;-71
2023/08/09 08:19:52;;;;;;;8.13;7.33;;;;;;;;;;5055172;28;20220;-71
2023/08/09 08:22:18;;;;;;;8.50;7.13;;;;;;;;;;5037448;28;20670;-70
2023/08/09 08:24:44;;;;;;;10.40;6.40;;;;;;;;;;5055643;28;20202;-71
2023/08/09 08:27:11;;;;;;;11.53;6.50;;;;;;;;;;5055241;28;20179;-71
2023/08/09 08:29:37;;;;;;;7.07;6.37;;;;;;;;;;5037360;28;20562;-71
2023/08/09 08:32:03;;;;;;;7.50;6.70;;;;;;;;;;5056182;28;20206;-71
2023/08/09 08:34:31;;;;;;;7.57;6.17;;;;;;;;;;5054921;28;20652;-70
2023/08/09 08:36:58;;;;;;;7.00;6.23;;;;;;;;;;5055056;28;20198;-70
2023/08/09 08:39:24;;;;;;;5.83;5.27;;;;;;;;;;5055459;28;20175;-71
2023/08/09 08:41:51;;;;;;;9.70;5.80;;;;;;;;;;5036991;28;20534;-70
2023/08/09 08:44:17;;;;;;;6.90;5.53;;;;;;;;;;5036485;28;20183;-71
2023/08/09 08:46:44;;;;;;;7.37;6.60;;;;;;;;;;5036685;28;20200;-70
2023/08/09 08:49:14;;;;;;;8.00;5.83;;;;;;;;;;5054804;28;20197;-70
2023/08/09 08:51:43;;;;;;;5.97;5.40;;;;;;;;;;5036631;28;20209;-71
2023/08/09 08:54:10;;;;;;;6.30;5.70;;;;;;;;;;5054767;28;20175;-70
2023/08/09 08:56:36;;;;;;;8.90;5.80;;;;;;;;;;5036529;28;20206;-70
2023/08/09 08:59:02;;;;;;;8.07;5.53;;;;;;;;;;5054662;28;20178;-68
2023/08/09 09:01:30;;;;;;;6.57;5.57;;;;;;;;;;5054505;28;20200;-68
2023/08/09 09:03:56;;;;;;;7.83;5.80;;;;;;;;;;5054407;28;20583;-69
2023/08/09 09:06:22;;;;;;;5.33;4.93;;;;;;;;;;5054529;28;20281;-69
2023/08/09 09:08:54;;;;;;;6.33;5.10;;;;;;;;;;5035756;28;20205;-69
2023/08/09 09:11:22;;;;;;;6.30;5.60;;;;;;;;;;5054354;28;20167;-69
2023/08/09 09:13:50;;;;;;;6.13;4.80;;;;;;;;;;5036200;28;20295;-69
2023/08/09 09:16:17;;;;;;;5.30;4.17;;;;;;;;;;5053947;28;20195;-69
2023/08/09 09:18:45;;;;;;;5.50;4.63;;;;;;;;;;5035999;28;20175;-69
2023/08/09 09:21:11;;;;;;;6.13;4.20;;;;;;;;;;5036210;28;20265;-69
2023/08/09 09:23:38;;;;;;;5.10;4.70;;;;;;;;;;5058761;28;20174;-69
2023/08/09 09:26:08;;;;;;;5.27;4.17;;;;;;;;;;5056001;28;20218;-69
2023/08/09 09:28:41;;;;;;;5.80;4.87;;;;;;;;;;5036671;28;20221;-68
2023/08/09 09:31:08;;;;;;;5.63;4.70;;;;;;;;;;5036456;28;20202;-68
2023/08/09 09:33:35;;;;;;;4.80;4.33;;;;;;;;;;5053927;28;20166;-69
2023/08/09 09:36:01;;;;;;;5.03;4.40;;;;;;;;;;5053849;28;20194;-69
2023/08/09 09:38:28;;;;;;;7.00;5.30;;;;;;;;;;5054195;28;20668;-69
2023/08/09 09:40:54;;;;;;;4.53;4.10;;;;;;;;;;5053914;28;20550;-68
2023/08/09 09:43:20;;;;;;;6.87;4.27;;;;;;;;;;5035668;28;20232;-68
2023/08/09 09:45:46;;;;;;;4.97;4.27;;;;;;;;;;5053492;28;20218;-69
2023/08/09 09:48:18;;;;;;;6.03;4.03;;;;;;;;;;5035829;28;20563;-70
2023/08/09 09:50:44;;;;;;;6.47;4.47;;;;;;;;;;5053871;28;20206;-70
2023/08/09 09:53:14;;;;;;;4.90;4.47;;;;;;;;;;5053770;28;20206;-69
2023/08/09 09:55:40;;;;;;;4.37;3.97;;;;;;;;;;5035567;28;20233;-69
2023/08/09 09:58:07;;;;;;;4.43;4.03;;;;;;;;;;5035447;28;20216;-69
2023/08/09 10:00:33;;;;;;;4.17;3.77;;;;;;;;;;5035461;28;20179;-69
2023/08/09 10:03:00;;;;;;;5.03;3.97;;;;;;;;;;5035352;28;20637;-70
2023/08/09 10:05:35;;;;;;;4.30;3.67;;;;;;;;;;5035334;28;20205;-70
2023/08/09 10:08:01;;;;;;;4.00;3.60;;;;;;;;;;5053346;28;20169;-70
2023/08/09 10:10:27;;;;;;;3.83;3.37;;;;;;;;;;5035253;28;20188;-70
2023/08/09 10:12:54;;;;;;;5.07;3.57;;;;;;;;;;5053087;28;20202;-69
2023/08/09 10:15:25;;;;;;;4.53;3.90;;;;;;;;;;5053086;28;20213;-69
2023/08/09 10:17:53;;;;;;;5.13;3.23;;;;;;;;;;5036153;28;20263;-69
2023/08/09 10:20:19;;;;;;;3.63;2.87;;;;;;;;;;5034480;28;20275;-70
2023/08/09 10:22:46;;;;;;;4.07;3.13;;;;;;;;;;5053307;28;20221;-69
2023/08/09 10:25:12;;;;;;;3.80;3.07;;;;;;;;;;5035148;28;20212;-69
2023/08/09 10:27:49;;;;;;;4.10;2.83;;;;;;;;;;5035291;28;20372;-70
2023/08/09 10:30:16;;;;;;;3.80;2.77;;;;;;;;;;5035385;28;20213;-70
2023/08/09 10:32:49;;;;;;;5.77;2.63;;;;;;;;;;5053459;28;20202;-70
2023/08/09 10:35:16;;;;;;;3.63;2.57;;;;;;;;;;5053460;28;20573;-70
2023/08/09 10:37:43;;;;;;;4.37;2.73;;;;;;;;;;5053307;28;20322;-70
2023/08/09 10:40:15;;;;;;;7.00;2.87;;;;;;;;;;5053473;28;20174;-70
2023/08/09 10:42:41;;;;;;;5.20;3.00;;;;;;;;;;5053153;28;20181;-70
2023/08/09 10:45:08;;;;;;;3.30;2.80;;;;;;;;;;5052825;28;20275;-70
2023/08/09 10:47:34;;;;;;;4.60;2.80;;;;;;;;;;5053705;28;20659;-70
2023/08/09 10:50:01;;;;;;;3.73;2.80;;;;;;;;;;5053331;28;20209;-69
2023/08/09 10:52:34;;;;;;;3.27;2.80;;;;;;;;;;5034859;28;20747;-69
2023/08/09 10:55:19;;;;;;;4.83;2.70;;;;;;;;;;5035253;28;20621;-69
2023/08/09 10:57:48;;;;;;;3.63;2.73;;;;;;;;;;5034817;28;20175;-69
2023/08/09 11:00:14;;;;;;;2.60;2.30;;;;;;;;;;5034672;28;20656;-70
2023/08/09 11:02:46;;;;;;;3.20;2.17;;;;;;;;;;5052666;28;20178;-70
2023/08/09 11:05:13;;;;;;;2.87;2.60;;;;;;;;;;5052500;28;20222;-69
2023/08/09 11:07:49;;;;;;;3.20;2.47;;;;;;;;;;5034627;28;20648;-70
2023/08/09 11:10:18;;;;;;;4.37;2.73;;;;;;;;;;5053598;28;20683;-70
2023/08/09 11:12:44;;;;;;;5.03;2.83;;;;;;;;;;5057039;28;20244;-70
2023/08/09 11:15:11;;;;;;;3.77;2.70;;;;;;;;;;5053621;28;20295;-70
2023/08/09 11:17:37;;;;;;;8.27;2.70;;;;;;;;;;5052909;28;20171;-69
2023/08/09 11:20:13;;;;;;;3.97;2.40;;;;;;;;;;5034544;28;20269;-69
2023/08/09 11:22:39;;;;;;;4.67;2.53;;;;;;;;;;5034730;28;20182;-69
2023/08/09 11:25:08;;;;;;;4.00;2.40;;;;;;;;;;5052322;28;20564;-69
2023/08/09 11:27:38;;;;;;;3.17;2.60;;;;;;;;;;5034524;28;20564;-69
2023/08/09 11:30:05;;;;;;;4.40;2.90;;;;;;;;;;5052668;28;20249;-69
2023/08/09 11:32:31;;;;;;;2.90;2.67;;;;;;;;;;5037968;28;20202;-69
2023/08/09 11:34:57;;;;;;;5.47;3.00;;;;;;;;;;5055856;28;20195;-70
2023/08/09 11:37:23;;;;;;;5.10;2.93;;;;;;;;;;5055877;28;20545;-69
2023/08/09 11:39:49;;;;;;;3.03;2.70;;;;;;;;;;5055979;28;20209;-69
2023/08/09 11:42:15;;;;;;;7.10;3.17;;;;;;;;;;5037870;28;20178;-70
2023/08/09 11:44:43;;;;;;;3.87;2.97;;;;;;;;;;5055616;28;20221;-69
2023/08/09 11:47:10;;;;;;;6.03;2.60;;;;;;;;;;5055912;28;20165;-69
2023/08/09 11:49:37;;;;;;;3.00;2.70;;;;;;;;;;5056002;28;20174;-69
2023/08/09 11:52:03;;;;;;;4.57;2.67;;;;;;;;;;5055963;28;20636;-69
2023/08/09 11:54:30;;;;;;;7.20;2.93;;;;;;;;;;5055456;28;20625;-69
2023/08/09 11:56:56;;;;;;;4.07;2.70;;;;;;;;;;5037414;28;20187;-69
2023/08/09 11:59:23;;;;;;;3.37;2.80;;;;;;;;;;5055452;28;20179;-69
2023/08/09 12:01:51;;;;;;;7.77;3.00;;;;;;;;;;5037237;28;20217;-69
2023/08/09 12:04:20;;;;;;;2.97;2.40;;;;;;;;;;5037326;28;20194;-69
2023/08/09 12:06:46;;;;;;;3.90;2.73;;;;;;;;;;5038232;28;20206;-68
2023/08/09 12:09:34;;;;;;;3.10;2.60;;;;;;;;;;5037482;28;20193;-68
2023/08/09 12:12:06;;;;;;;3.23;2.70;;;;;;;;;;5038300;28;20301;-69
2023/08/09 12:14:33;;;;;;;7.10;3.00;;;;;;;;;;5055044;28;20257;-69
2023/08/09 12:16:59;;;;;;;2.93;2.40;;;;;;;;;;5055061;28;20167;-69
2023/08/09 12:19:25;;;;;;;3.57;2.50;;;;;;;;;;5055581;28;20179;-69
2023/08/09 12:21:50;;;;;;;3.77;2.67;;;;;;;;;;5054976;28;20205;-69
2023/08/09 12:24:16;;;;;;;4.47;2.70;;;;;;;;;;5036899;28;20601;-69
2023/08/09 12:26:42;;;;;;;4.67;2.30;;;;;;;;;;5054895;28;20626;-69
2023/08/09 12:29:12;;;;;;;7.97;2.83;;;;;;;;;;5054823;28;20182;-69
2023/08/09 12:31:38;;;;;;;5.20;2.93;;;;;;;;;;5054630;28;20668;-69
2023/08/09 12:34:04;;;;;;;4.40;2.77;;;;;;;;;;5054807;28;20175;-69
2023/08/09 12:36:30;;;;;;;4.07;2.30;;;;;;;;;;5036722;28;20198;-69
2023/08/09 12:38:57;;;;;;;4.83;2.80;;;;;;;;;;5055208;28;20174;-69
2023/08/09 12:41:24;;;;;;;3.23;2.47;;;;;;;;;;5054597;28;20174;-69
2023/08/09 12:43:50;;;;;;;3.77;2.40;;;;;;;;;;5053739;28;20555;-69
2023/08/09 12:46:16;;;;;;;5.60;2.30;;;;;;;;;;5054489;28;20218;-69
2023/08/09 12:48:42;;;;;;;6.07;2.40;;;;;;;;;;5036709;28;20202;-69
2023/08/09 12:51:14;;;;;;;4.57;2.27;;;;;;;;;;5054549;28;20171;-69
2023/08/09 12:53:41;;;;;;;4.27;2.50;;;;;;;;;;5036442;28;20210;-69
2023/08/09 12:56:07;;;;;;;3.33;2.43;;;;;;;;;;5054226;28;20202;-69
2023/08/09 12:58:33;;;;;;;6.73;2.70;;;;;;;;;;5036372;28;20610;-69
2023/08/09 13:01:00;;;;;;;3.30;2.40;;;;;;;;;;5054501;28;20601;-69
2023/08/09 13:03:26;;;;;;;3.33;2.53;;;;;;;;;;5054184;28;20221;-69
2023/08/09 13:05:52;;;;;;;3.97;2.40;;;;;;;;;;5054123;28;20234;-69
2023/08/09 13:08:18;;;;;;;4.87;2.63;;;;;;;;;;5054479;28;20522;-69
2023/08/09 13:10:43;;;;;;;4.93;2.50;;;;;;;;;;5054269;28;20650;-68
2023/08/09 13:13:09;;;;;;;4.10;2.40;;;;;;;;;;5035898;28;20210;-70
2023/08/09 13:15:35;;;;;;;4.90;2.50;;;;;;;;;;5053910;28;20205;-69
2023/08/09 13:18:01;;;;;;;4.70;2.83;;;;;;;;;;5053842;28;20205;-68
2023/08/09 13:20:29;;;;;;;5.33;3.43;;;;;;;;;;5053789;28;20178;-69
2023/08/09 13:22:55;;;;;;;3.67;2.90;;;;;;;;;;5035823;28;20179;-69
2023/08/09 13:25:21;;;;;;;7.70;3.93;;;;;;;;;;5053928;28;20541;-68
2023/08/09 13:27:47;;;;;;;5.07;3.57;;;;;;;;;;5035868;28;20183;-69
2023/08/09 13:30:13;;;;;;;5.80;3.80;;;;;;;;;;5053539;28;20175;-69
2023/08/09 13:32:39;;;;;;;4.43;4.03;;;;;;;;;;5054033;28;20710;-68
2023/08/09 13:35:07;;;;;;;4.23;3.70;;;;;;;;;;5035616;28;20285;-68
2023/08/09 13:37:33;;;;;;;4.87;4.10;;;;;;;;;;5053509;28;20648;-68
2023/08/09 13:39:58;;;;;;;6.73;3.70;;;;;;;;;;5035857;28;20232;-68
2023/08/09 13:42:25;;;;;;;6.80;3.67;;;;;;;;;;5053509;28;20213;-69
2023/08/09 13:44:51;;;;;;;6.30;3.83;;;;;;;;;;5053807;28;20583;-68
2023/08/09 13:47:17;;;;;;;3.90;3.50;;;;;;;;;;5053808;28;20174;-69
2023/08/09 13:49:43;;;;;;;5.93;3.73;;;;;;;;;;5035574;28;20197;-69
2023/08/09 13:52:09;;;;;;;4.17;3.33;;;;;;;;;;5053257;28;20251;-69
2023/08/09 13:54:35;;;;;;;7.23;3.30;;;;;;;;;;5053203;28;20198;-69
2023/08/09 13:57:01;;;;;;;3.40;2.77;;;;;;;;;;5056098;28;20181;-69
2023/08/09 13:59:27;;;;;;;5.03;2.93;;;;;;;;;;5054427;28;20206;-69
2023/08/09 14:01:53;;;;;;;3.60;2.77;;;;;;;;;;5053369;28;20527;-68
2023/08/09 14:04:19;;;;;;;4.10;3.07;;;;;;;;;;5053513;28;20221;-69
2023/08/09 14:06:46;;;;;;;6.53;2.90;;;;;;;;;;5035335;28;20182;-69
2023/08/09 14:09:13;;;;;;;4.93;2.20;;;;;;;;;;5053291;28;20593;-69
2023/08/09 14:11:38;;;;;;;3.80;2.37;;;;;;;;;;5053741;28;20194;-69
2023/08/09 14:14:04;;;;;;;3.47;2.53;;;;;;;;;;5053026;28;20231;-69
2023/08/09 14:16:31;;;;;;;6.37;2.80;;;;;;;;;;5053642;28;20214;-69
2023/08/09 14:18:57;;;;;;;4.30;2.77;;;;;;;;;;5053757;28;20697;-69
2023/08/09 14:21:23;;;;;;;2.47;2.27;;;;;;;;;;5036047;28;20273;-69
2023/08/09 14:23:49;;;;;;;12.10;2.77;;;;;;;;;;5053830;28;20135;-69
2023/08/09 14:26:15;;;;;;;3.43;2.43;;;;;;;;;;5053543;28;20205;-69
2023/08/09 14:28:41;;;;;;;4.07;2.33;;;;;;;;;;5052994;28;20182;-69
2023/08/09 14:31:07;;;;;;;4.00;2.40;;;;;;;;;;5053671;28;20579;-68
2023/08/09 14:33:33;;;;;;;5.13;2.57;;;;;;;;;;5052993;28;20280;-69